Time;durP1;ratioP1;P1;durP2;ratioP2;P2;SDS_P1;SDS_P2;PMS_P1;PMS_P2;Temp;Humidity;BMP_temperature;BMP_pressure;BME280_temperature;BME280_humidity;BME280_pressure;Samples;Min_cycle;Max_cycle;Signal;HPM_P1;HPM_P2
2022/03/31 00:01:33;;;;;;;21.90;6.47;;;;;;;;;;4464559;32;20204;-53
2022/03/31 00:03:58;;;;;;;21.90;5.40;;;;;;;;;;4450539;32;20258;-54
2022/03/31 00:06:24;;;;;;;16.63;4.87;;;;;;;;;;4448158;32;20737;-53
2022/03/31 00:08:49;;;;;;;22.50;5.05;;;;;;;;;;4448764;32;20232;-54
2022/03/31 00:11:15;;;;;;;14.47;4.73;;;;;;;;;;4448268;32;20332;-54
2022/03/31 00:13:41;;;;;;;20.47;5.83;;;;;;;;;;4448771;32;20264;-54
2022/03/31 00:16:07;;;;;;;22.17;6.00;;;;;;;;;;4448349;32;20612;-52
2022/03/31 00:18:33;;;;;;;18.93;5.53;;;;;;;;;;4448435;32;20251;-53
2022/03/31 00:21:00;;;;;;;22.90;5.97;;;;;;;;;;4448511;32;20301;-54
2022/03/31 00:23:25;;;;;;;18.30;5.07;;;;;;;;;;4448455;32;20545;-52
2022/03/31 00:25:51;;;;;;;17.83;6.20;;;;;;;;;;4448651;32;20291;-53
2022/03/31 00:28:16;;;;;;;14.97;5.93;;;;;;;;;;4448105;32;20393;-52
2022/03/31 00:30:42;;;;;;;18.80;7.00;;;;;;;;;;4448733;32;20295;-53
2022/03/31 00:33:08;;;;;;;25.05;5.87;;;;;;;;;;4448679;32;20316;-53
2022/03/31 00:35:34;;;;;;;18.45;5.40;;;;;;;;;;4448662;32;20606;-54
2022/03/31 00:37:59;;;;;;;18.73;5.83;;;;;;;;;;4459580;32;20224;-52
2022/03/31 00:40:25;;;;;;;17.90;5.85;;;;;;;;;;4463822;32;20330;-53
2022/03/31 00:42:56;;;;;;;18.52;7.25;;;;;;;;;;4463745;32;20282;-52
2022/03/31 00:45:24;;;;;;;17.52;5.18;;;;;;;;;;4464098;32;20795;-53
2022/03/31 00:47:51;;;;;;;27.17;7.67;;;;;;;;;;4462581;32;20302;-53
2022/03/31 00:50:17;;;;;;;31.52;6.32;;;;;;;;;;4448403;32;20250;-53
2022/03/31 00:52:43;;;;;;;23.00;6.07;;;;;;;;;;4448320;32;20232;-53
2022/03/31 00:55:11;;;;;;;16.08;5.25;;;;;;;;;;4448293;32;20305;-53
2022/03/31 00:57:38;;;;;;;16.33;6.22;;;;;;;;;;4453542;32;20224;-53
2022/03/31 01:00:08;;;;;;;23.38;4.50;;;;;;;;;;4450788;32;20264;-53
2022/03/31 01:02:35;;;;;;;26.73;6.43;;;;;;;;;;4451776;32;20549;-53
2022/03/31 01:05:01;;;;;;;23.15;7.03;;;;;;;;;;4456153;32;20308;-52
2022/03/31 01:07:28;;;;;;;34.88;6.25;;;;;;;;;;4451066;32;20702;-53
2022/03/31 01:09:57;;;;;;;18.13;5.17;;;;;;;;;;4451136;32;20256;-54
2022/03/31 01:12:23;;;;;;;25.65;5.65;;;;;;;;;;4451010;32;20196;-52
2022/03/31 01:15:16;;;;;;;22.10;5.53;;;;;;;;;;4451430;32;20324;-52
2022/03/31 01:17:44;;;;;;;26.45;7.07;;;;;;;;;;4451096;32;20247;-53
2022/03/31 01:20:14;;;;;;;14.25;5.40;;;;;;;;;;4450689;32;20242;-53
2022/03/31 01:22:42;;;;;;;18.92;6.65;;;;;;;;;;4450930;32;20546;-53
2022/03/31 01:25:09;;;;;;;23.05;6.50;;;;;;;;;;4451005;32;20306;-54
2022/03/31 01:27:37;;;;;;;31.17;6.43;;;;;;;;;;4450087;32;20684;-53
2022/03/31 01:30:06;;;;;;;36.73;8.00;;;;;;;;;;4450301;32;20264;-53
2022/03/31 01:32:32;;;;;;;30.83;6.17;;;;;;;;;;4450721;32;20224;-53
2022/03/31 01:34:57;;;;;;;15.97;5.23;;;;;;;;;;4466647;32;20326;-53
2022/03/31 01:37:23;;;;;;;14.65;5.55;;;;;;;;;;4458292;32;20213;-53
2022/03/31 01:39:48;;;;;;;25.70;5.77;;;;;;;;;;4450330;32;20288;-54
2022/03/31 01:42:14;;;;;;;20.90;5.35;;;;;;;;;;4449964;32;20226;-53
2022/03/31 01:44:40;;;;;;;24.17;5.77;;;;;;;;;;4450623;32;20338;-53
2022/03/31 01:47:05;;;;;;;18.63;7.40;;;;;;;;;;4450091;32;20534;-53
2022/03/31 01:49:31;;;;;;;29.27;6.62;;;;;;;;;;4462050;32;20250;-53
2022/03/31 01:51:56;;;;;;;28.27;6.97;;;;;;;;;;4465635;32;20208;-55
2022/03/31 01:54:22;;;;;;;24.08;5.95;;;;;;;;;;4465891;32;20655;-53
2022/03/31 01:56:48;;;;;;;18.67;5.82;;;;;;;;;;4458163;32;20213;-52
2022/03/31 01:59:13;;;;;;;23.52;5.75;;;;;;;;;;4455397;32;20231;-53
2022/03/31 02:01:39;;;;;;;29.57;7.07;;;;;;;;;;4450035;32;20276;-53
2022/03/31 02:04:04;;;;;;;17.33;5.63;;;;;;;;;;4450146;32;20255;-53
2022/03/31 02:06:30;;;;;;;18.00;6.07;;;;;;;;;;4454560;32;20229;-53
2022/03/31 02:08:56;;;;;;;29.02;6.50;;;;;;;;;;4450349;32;20301;-53
2022/03/31 02:11:22;;;;;;;33.83;6.47;;;;;;;;;;4448919;32;20587;-52
2022/03/31 02:13:48;;;;;;;23.23;5.43;;;;;;;;;;4450374;32;20673;-52
2022/03/31 02:16:14;;;;;;;9.00;4.33;;;;;;;;;;4450257;32;20287;-53
2022/03/31 02:18:40;;;;;;;25.50;7.53;;;;;;;;;;4450077;32;20258;-53
2022/03/31 02:21:05;;;;;;;21.03;5.80;;;;;;;;;;4449913;32;20268;-53
2022/03/31 02:23:31;;;;;;;31.47;7.60;;;;;;;;;;4449817;32;20288;-53
2022/03/31 02:25:56;;;;;;;25.20;5.63;;;;;;;;;;4449358;32;20372;-52
2022/03/31 02:28:22;;;;;;;25.55;6.30;;;;;;;;;;4449628;32;20595;-53
2022/03/31 02:30:47;;;;;;;19.40;6.37;;;;;;;;;;4462754;32;20289;-53
2022/03/31 02:33:13;;;;;;;26.65;6.35;;;;;;;;;;4465267;32;20264;-52
2022/03/31 02:35:38;;;;;;;17.90;6.17;;;;;;;;;;4465511;32;20891;-53
2022/03/31 02:38:04;;;;;;;20.07;5.70;;;;;;;;;;4452988;32;20288;-54
2022/03/31 02:40:29;;;;;;;23.97;5.57;;;;;;;;;;4449538;32;20706;-54
2022/03/31 02:42:55;;;;;;;25.73;6.30;;;;;;;;;;4449571;32;20594;-52
2022/03/31 02:45:21;;;;;;;24.48;5.97;;;;;;;;;;4449711;32;20399;-54
2022/03/31 02:47:47;;;;;;;23.05;6.95;;;;;;;;;;4450000;32;20573;-52
2022/03/31 02:50:14;;;;;;;30.88;5.93;;;;;;;;;;4465155;32;20322;-53
2022/03/31 02:55:30;;;;;;;20.37;5.50;;;;;;;;;;4464836;32;20215;-54
2022/03/31 02:58:01;;;;;;;22.03;7.47;;;;;;;;;;4456304;32;20228;-53
2022/03/31 03:00:28;;;;;;;28.63;6.83;;;;;;;;;;4449242;32;20234;-54
2022/03/31 03:02:54;;;;;;;22.00;6.32;;;;;;;;;;4449359;32;20220;-54
2022/03/31 03:05:20;;;;;;;13.10;5.65;;;;;;;;;;4453875;32;20379;-54
2022/03/31 03:07:45;;;;;;;19.20;5.87;;;;;;;;;;4447868;32;20256;-54
2022/03/31 03:10:11;;;;;;;21.70;7.65;;;;;;;;;;4448806;32;20774;-54
2022/03/31 03:12:36;;;;;;;20.35;6.45;;;;;;;;;;4449157;32;20212;-54
2022/03/31 03:15:03;;;;;;;26.55;6.70;;;;;;;;;;4449444;32;20673;-55
2022/03/31 03:17:29;;;;;;;24.00;5.70;;;;;;;;;;4448524;32;20350;-55
2022/03/31 03:19:55;;;;;;;18.05;5.43;;;;;;;;;;4448915;32;20367;-53
2022/03/31 03:22:20;;;;;;;24.90;6.47;;;;;;;;;;4449122;32;20212;-52
2022/03/31 03:24:45;;;;;;;23.27;6.30;;;;;;;;;;4448913;32;20294;-53
2022/03/31 03:27:11;;;;;;;20.23;5.45;;;;;;;;;;4460607;32;20374;-53
2022/03/31 03:29:36;;;;;;;28.97;7.33;;;;;;;;;;4448717;32;20731;-53
2022/03/31 03:32:02;;;;;;;22.30;6.63;;;;;;;;;;4448517;32;20725;-53
2022/03/31 03:34:27;;;;;;;13.63;4.57;;;;;;;;;;4448994;32;20622;-53
2022/03/31 03:36:53;;;;;;;31.20;5.97;;;;;;;;;;4448383;32;20258;-51
2022/03/31 03:39:18;;;;;;;42.40;6.90;;;;;;;;;;4448355;32;20229;-52
2022/03/31 03:41:44;;;;;;;32.90;5.47;;;;;;;;;;4448513;32;20244;-53
2022/03/31 03:44:09;;;;;;;24.15;6.68;;;;;;;;;;4448727;32;20224;-52
2022/03/31 03:46:35;;;;;;;18.25;5.30;;;;;;;;;;4448261;32;20770;-53
2022/03/31 03:49:01;;;;;;;25.45;9.52;;;;;;;;;;4456944;32;20645;-53
2022/03/31 03:51:26;;;;;;;29.52;7.57;;;;;;;;;;4463955;32;20242;-53
2022/03/31 03:53:52;;;;;;;24.67;6.95;;;;;;;;;;4464469;32;20295;-53
2022/03/31 03:56:18;;;;;;;29.52;6.68;;;;;;;;;;4460668;32;20230;-53
2022/03/31 03:58:44;;;;;;;35.25;8.57;;;;;;;;;;4453709;32;20224;-53
2022/03/31 04:01:09;;;;;;;22.77;6.50;;;;;;;;;;4448611;32;20630;-52
2022/03/31 04:03:35;;;;;;;20.77;6.63;;;;;;;;;;4448541;32;20224;-54
2022/03/31 04:06:01;;;;;;;22.50;6.37;;;;;;;;;;4452977;32;20291;-53
2022/03/31 04:08:27;;;;;;;23.23;7.00;;;;;;;;;;4448328;32;20231;-53
2022/03/31 04:10:52;;;;;;;33.17;5.53;;;;;;;;;;4448279;32;20286;-53
2022/03/31 04:13:18;;;;;;;21.75;5.55;;;;;;;;;;4448343;32;20277;-52
2022/03/31 04:15:44;;;;;;;28.02;5.87;;;;;;;;;;4448357;32;20287;-52
2022/03/31 04:18:09;;;;;;;33.55;7.10;;;;;;;;;;4447928;32;20263;-53
2022/03/31 04:20:35;;;;;;;29.58;6.35;;;;;;;;;;4447085;32;20307;-53
2022/03/31 04:23:01;;;;;;;30.75;6.85;;;;;;;;;;4459849;32;20215;-53
2022/03/31 04:25:26;;;;;;;16.40;5.25;;;;;;;;;;4463662;32;20338;-53
2022/03/31 04:27:52;;;;;;;40.70;7.18;;;;;;;;;;4459702;32;20626;-53
2022/03/31 04:30:20;;;;;;;23.85;6.05;;;;;;;;;;4463967;32;20259;-54
2022/03/31 04:32:49;;;;;;;38.13;7.05;;;;;;;;;;4463554;32;20397;-54
2022/03/31 04:35:16;;;;;;;31.83;7.10;;;;;;;;;;4466479;32;20223;-53
2022/03/31 04:37:41;;;;;;;41.40;6.60;;;;;;;;;;4456612;32;20326;-53
2022/03/31 04:40:08;;;;;;;37.63;5.60;;;;;;;;;;4450885;32;20283;-54
2022/03/31 04:42:34;;;;;;;23.75;6.72;;;;;;;;;;4450820;32;20377;-52
2022/03/31 04:45:02;;;;;;;23.12;7.22;;;;;;;;;;4450642;32;20324;-54
2022/03/31 04:47:28;;;;;;;29.10;6.27;;;;;;;;;;4450249;32;20368;-52
2022/03/31 04:49:54;;;;;;;37.57;6.97;;;;;;;;;;4451121;32;20221;-54
2022/03/31 04:52:19;;;;;;;37.30;6.40;;;;;;;;;;4449974;32;20543;-54
2022/03/31 04:54:45;;;;;;;34.07;8.47;;;;;;;;;;4450758;32;20707;-53
2022/03/31 04:57:12;;;;;;;29.98;8.43;;;;;;;;;;4459593;32;20638;-54
2022/03/31 04:59:38;;;;;;;27.85;6.72;;;;;;;;;;4453411;32;20220;-53
2022/03/31 05:02:04;;;;;;;21.57;8.33;;;;;;;;;;4450130;32;20314;-54
2022/03/31 05:04:30;;;;;;;33.70;8.73;;;;;;;;;;4452231;32;20291;-54
2022/03/31 05:06:55;;;;;;;24.27;6.53;;;;;;;;;;4452806;32;20359;-54
2022/03/31 05:09:21;;;;;;;31.13;7.83;;;;;;;;;;4450255;32;20279;-55
2022/03/31 05:11:47;;;;;;;22.52;7.32;;;;;;;;;;4449532;32;20594;-55
2022/03/31 05:14:12;;;;;;;20.77;8.30;;;;;;;;;;4450093;32;20339;-55
2022/03/31 05:16:38;;;;;;;29.45;6.55;;;;;;;;;;4449751;32;20225;-55
2022/03/31 05:19:04;;;;;;;27.30;7.47;;;;;;;;;;4460084;32;20645;-55
2022/03/31 05:21:29;;;;;;;26.23;7.13;;;;;;;;;;4465029;32;20617;-54
2022/03/31 05:23:55;;;;;;;29.60;8.33;;;;;;;;;;4465740;32;20220;-53
2022/03/31 05:26:20;;;;;;;23.77;7.60;;;;;;;;;;4464856;32;20243;-54
2022/03/31 05:28:45;;;;;;;22.60;7.20;;;;;;;;;;4452317;32;20247;-53
2022/03/31 05:31:11;;;;;;;35.83;7.00;;;;;;;;;;4449168;32;20577;-53
2022/03/31 05:33:36;;;;;;;35.70;6.77;;;;;;;;;;4449672;32;20224;-52
2022/03/31 05:36:02;;;;;;;26.23;5.93;;;;;;;;;;4449679;32;20619;-53
2022/03/31 05:38:28;;;;;;;29.20;6.67;;;;;;;;;;4449210;32;20260;-54
2022/03/31 05:40:53;;;;;;;27.50;7.20;;;;;;;;;;4449699;32;20335;-53
2022/03/31 05:43:21;;;;;;;39.40;7.47;;;;;;;;;;4449703;32;20232;-56
2022/03/31 05:45:47;;;;;;;31.93;6.77;;;;;;;;;;4449765;32;20236;-54
2022/03/31 05:48:12;;;;;;;25.57;7.10;;;;;;;;;;4453318;32;20413;-54
2022/03/31 05:50:38;;;;;;;26.13;6.80;;;;;;;;;;4465076;32;20289;-53
2022/03/31 05:53:03;;;;;;;32.37;7.53;;;;;;;;;;4463607;32;20244;-54
2022/03/31 05:55:29;;;;;;;38.70;7.13;;;;;;;;;;4463358;32;20327;-53
2022/03/31 05:57:54;;;;;;;30.40;6.20;;;;;;;;;;4456617;32;20252;-53
2022/03/31 06:00:21;;;;;;;18.63;6.03;;;;;;;;;;4463264;32;20397;-53
2022/03/31 06:02:47;;;;;;;26.57;8.20;;;;;;;;;;4463445;32;20310;-53
2022/03/31 06:05:13;;;;;;;30.63;7.33;;;;;;;;;;4455889;32;20347;-53
2022/03/31 06:07:39;;;;;;;25.90;6.27;;;;;;;;;;4448403;32;20251;-53
2022/03/31 06:10:06;;;;;;;31.87;7.33;;;;;;;;;;4449732;32;20354;-54
2022/03/31 06:12:32;;;;;;;33.50;7.37;;;;;;;;;;4448605;32;20224;-54
2022/03/31 06:14:57;;;;;;;39.87;6.43;;;;;;;;;;4448547;32;20321;-54
2022/03/31 06:17:23;;;;;;;43.53;6.87;;;;;;;;;;4448446;32;20593;-54
2022/03/31 06:19:49;;;;;;;26.37;6.53;;;;;;;;;;4449408;32;20334;-55
2022/03/31 06:22:14;;;;;;;32.40;6.47;;;;;;;;;;4448474;32;20226;-53
2022/03/31 06:24:40;;;;;;;23.77;6.13;;;;;;;;;;4448345;32;20264;-53
2022/03/31 06:27:08;;;;;;;35.00;8.20;;;;;;;;;;4448542;32;20608;-53
2022/03/31 06:29:33;;;;;;;30.03;7.43;;;;;;;;;;4461875;32;20564;-53
2022/03/31 06:31:59;;;;;;;17.47;6.17;;;;;;;;;;4463963;32;20196;-54
2022/03/31 06:34:25;;;;;;;19.03;5.70;;;;;;;;;;4449849;32;20302;-54
2022/03/31 06:36:50;;;;;;;29.43;8.37;;;;;;;;;;4458310;32;20276;-53
2022/03/31 06:39:16;;;;;;;19.57;6.20;;;;;;;;;;4447070;32;20232;-54
2022/03/31 06:41:42;;;;;;;27.33;7.40;;;;;;;;;;4447810;32;20267;-53
2022/03/31 06:44:08;;;;;;;27.57;6.97;;;;;;;;;;4447665;32;20294;-53
2022/03/31 06:46:35;;;;;;;40.00;6.65;;;;;;;;;;4446724;32;20271;-54
2022/03/31 06:49:01;;;;;;;20.33;5.43;;;;;;;;;;4445907;32;20233;-53
2022/03/31 06:51:27;;;;;;;42.80;9.20;;;;;;;;;;4445100;32;20282;-54
2022/03/31 06:53:54;;;;;;;24.93;6.30;;;;;;;;;;4446450;32;20307;-55
2022/03/31 06:56:19;;;;;;;45.58;6.93;;;;;;;;;;4446162;32;20271;-52
2022/03/31 06:58:45;;;;;;;27.67;6.93;;;;;;;;;;4460051;32;20232;-53
2022/03/31 07:01:11;;;;;;;20.12;6.35;;;;;;;;;;4463559;32;20290;-55
2022/03/31 07:03:37;;;;;;;27.80;7.20;;;;;;;;;;4463833;32;20349;-54
2022/03/31 07:06:02;;;;;;;33.33;6.07;;;;;;;;;;4452424;32;20366;-53
2022/03/31 07:08:28;;;;;;;40.93;7.83;;;;;;;;;;4449129;32;20392;-53
2022/03/31 07:10:53;;;;;;;31.12;5.87;;;;;;;;;;4449504;32;20343;-55
2022/03/31 07:13:19;;;;;;;24.37;7.00;;;;;;;;;;4450488;32;20625;-55
2022/03/31 07:15:45;;;;;;;38.95;7.32;;;;;;;;;;4448073;32;20703;-54
2022/03/31 07:18:10;;;;;;;23.93;7.93;;;;;;;;;;4448712;32;20247;-54
2022/03/31 07:20:36;;;;;;;32.57;8.03;;;;;;;;;;4448650;32;20419;-55
2022/03/31 07:23:03;;;;;;;35.93;6.20;;;;;;;;;;4448608;32;20708;-53
2022/03/31 07:25:29;;;;;;;27.27;6.60;;;;;;;;;;4448481;32;20243;-54
2022/03/31 07:27:56;;;;;;;24.42;7.62;;;;;;;;;;4448097;32;20292;-53
2022/03/31 07:30:22;;;;;;;32.40;8.10;;;;;;;;;;4448150;32;20200;-53
2022/03/31 07:32:53;;;;;;;37.93;7.53;;;;;;;;;;4448070;32;20220;-53
2022/03/31 07:35:21;;;;;;;30.23;7.60;;;;;;;;;;4451649;32;20197;-53
2022/03/31 07:37:46;;;;;;;43.35;7.00;;;;;;;;;;4451010;32;20257;-54
2022/03/31 07:40:13;;;;;;;22.87;7.50;;;;;;;;;;4461711;32;20734;-54
2022/03/31 07:42:38;;;;;;;29.65;5.07;;;;;;;;;;4461455;32;20220;-53
2022/03/31 07:45:04;;;;;;;33.20;7.57;;;;;;;;;;4447302;32;20577;-54
2022/03/31 07:47:30;;;;;;;39.90;7.50;;;;;;;;;;4447202;32;20228;-53
2022/03/31 07:49:56;;;;;;;35.00;9.02;;;;;;;;;;4445841;32;20253;-53
2022/03/31 07:52:24;;;;;;;36.67;8.02;;;;;;;;;;4446977;32;20331;-53
2022/03/31 07:54:49;;;;;;;33.22;10.02;;;;;;;;;;4447807;32;20264;-54
2022/03/31 07:57:16;;;;;;;31.57;7.67;;;;;;;;;;4450766;32;20230;-54
2022/03/31 07:59:41;;;;;;;38.58;7.65;;;;;;;;;;4463322;32;20215;-54
2022/03/31 08:02:07;;;;;;;30.35;6.53;;;;;;;;;;4459412;32;20268;-53
2022/03/31 08:04:33;;;;;;;23.00;6.43;;;;;;;;;;4450031;32;20760;-53
2022/03/31 08:06:59;;;;;;;39.10;6.97;;;;;;;;;;4449872;32;20201;-54
2022/03/31 08:09:25;;;;;;;19.90;7.32;;;;;;;;;;4456777;32;20224;-54
2022/03/31 08:11:51;;;;;;;26.70;6.30;;;;;;;;;;4463611;32;20184;-53
2022/03/31 08:14:19;;;;;;;33.57;8.73;;;;;;;;;;4460123;32;20760;-55
2022/03/31 08:16:48;;;;;;;48.00;6.87;;;;;;;;;;4448038;32;20201;-54
2022/03/31 08:19:18;;;;;;;41.13;8.68;;;;;;;;;;4448307;32;20294;-54
2022/03/31 08:21:46;;;;;;;23.80;6.22;;;;;;;;;;4447559;32;20654;-55
2022/03/31 08:24:13;;;;;;;32.97;7.35;;;;;;;;;;4448164;32;20212;-55
2022/03/31 08:26:43;;;;;;;26.95;7.62;;;;;;;;;;4448007;32;20197;-54
2022/03/31 08:29:10;;;;;;;32.85;6.47;;;;;;;;;;4447654;32;20287;-63
2022/03/31 08:31:37;;;;;;;18.70;6.10;;;;;;;;;;4447738;32;20744;-54
2022/03/31 08:34:04;;;;;;;27.73;6.70;;;;;;;;;;4448356;32;20287;-54
2022/03/31 08:36:29;;;;;;;33.92;6.93;;;;;;;;;;4447264;32;20288;-53
2022/03/31 08:38:55;;;;;;;43.87;7.23;;;;;;;;;;4447951;32;20240;-54
2022/03/31 08:41:25;;;;;;;19.73;7.10;;;;;;;;;;4447704;32;20335;-53
2022/03/31 08:43:51;;;;;;;24.35;6.68;;;;;;;;;;4458797;32;20271;-54
2022/03/31 08:46:16;;;;;;;33.08;7.75;;;;;;;;;;4462754;32;20615;-53
2022/03/31 08:48:43;;;;;;;36.72;6.45;;;;;;;;;;4462305;32;20303;-54
2022/03/31 08:51:09;;;;;;;26.25;7.93;;;;;;;;;;4462938;32;20323;-53
2022/03/31 08:53:35;;;;;;;30.77;6.75;;;;;;;;;;4463593;32;20232;-54
2022/03/31 08:56:01;;;;;;;36.53;6.72;;;;;;;;;;4463157;32;20372;-53
2022/03/31 08:58:26;;;;;;;22.17;5.75;;;;;;;;;;4457769;32;20254;-52
2022/03/31 09:00:52;;;;;;;54.28;7.80;;;;;;;;;;4447594;32;20587;-52
2022/03/31 09:03:18;;;;;;;38.00;6.62;;;;;;;;;;4447451;32;20639;-52
2022/03/31 09:05:54;;;;;;;37.83;6.07;;;;;;;;;;4451814;32;20343;-54
2022/03/31 09:08:19;;;;;;;41.60;7.35;;;;;;;;;;4447206;32;20246;-53
2022/03/31 09:10:51;;;;;;;24.33;6.55;;;;;;;;;;4452148;32;20575;-53
2022/03/31 09:13:38;;;;;;;38.67;7.20;;;;;;;;;;4461536;32;20687;-55
2022/03/31 09:16:06;;;;;;;20.75;7.40;;;;;;;;;;4447336;32;20235;-54
2022/03/31 09:18:34;;;;;;;23.30;6.60;;;;;;;;;;4447530;32;20251;-54
2022/03/31 09:21:03;;;;;;;32.78;6.53;;;;;;;;;;4448911;32;20335;-53
2022/03/31 09:23:41;;;;;;;37.95;8.07;;;;;;;;;;4450337;32;20341;-53
2022/03/31 09:26:12;;;;;;;29.98;8.48;;;;;;;;;;4450472;32;20193;-52
2022/03/31 09:28:39;;;;;;;43.37;7.70;;;;;;;;;;4450244;32;20702;-52
2022/03/31 09:31:12;;;;;;;31.75;5.72;;;;;;;;;;4450154;32;20257;-54
2022/03/31 09:33:48;;;;;;;19.50;7.00;;;;;;;;;;4450152;32;20224;-53
2022/03/31 09:36:19;;;;;;;34.05;6.10;;;;;;;;;;4449584;32;20218;-52
2022/03/31 09:39:00;;;;;;;30.60;7.43;;;;;;;;;;4465776;32;20220;-52
2022/03/31 09:41:31;;;;;;;43.85;7.50;;;;;;;;;;4461545;32;20609;-54
2022/03/31 09:43:59;;;;;;;25.23;7.73;;;;;;;;;;4461915;32;20665;-54
2022/03/31 09:46:28;;;;;;;47.57;7.80;;;;;;;;;;4465132;32;20192;-54
2022/03/31 09:48:56;;;;;;;27.55;6.47;;;;;;;;;;4465511;32;20611;-54
2022/03/31 09:51:23;;;;;;;33.17;6.12;;;;;;;;;;4464882;32;20259;-54
2022/03/31 09:53:51;;;;;;;40.12;7.57;;;;;;;;;;4465588;32;20401;-55
2022/03/31 09:56:18;;;;;;;43.58;6.95;;;;;;;;;;4450522;32;20553;-54
2022/03/31 09:58:46;;;;;;;32.97;8.40;;;;;;;;;;4462023;32;20268;-53
2022/03/31 10:01:14;;;;;;;35.60;7.72;;;;;;;;;;4448463;32;20242;-55
2022/03/31 10:03:39;;;;;;;33.78;7.82;;;;;;;;;;4449748;32;20228;-54
2022/03/31 10:06:07;;;;;;;33.22;6.35;;;;;;;;;;4454295;32;20279;-54
2022/03/31 10:08:37;;;;;;;47.13;6.93;;;;;;;;;;4464727;32;20287;-54
2022/03/31 10:11:04;;;;;;;28.98;6.53;;;;;;;;;;4465072;32;20192;-55
2022/03/31 10:13:37;;;;;;;42.72;7.82;;;;;;;;;;4463781;32;20366;-54
2022/03/31 10:16:13;;;;;;;34.47;6.65;;;;;;;;;;4449581;32;20456;-55
2022/03/31 10:18:40;;;;;;;37.28;6.18;;;;;;;;;;4449608;32;20257;-54
2022/03/31 10:21:06;;;;;;;30.80;8.20;;;;;;;;;;4448988;32;20204;-55
2022/03/31 10:26:21;;;;;;;30.75;8.85;;;;;;;;;;4449354;32;20302;-54
2022/03/31 10:29:00;;;;;;;35.83;6.62;;;;;;;;;;4449022;32;20224;-53
2022/03/31 10:31:39;;;;;;;34.22;8.15;;;;;;;;;;4447943;32;20196;-52
2022/03/31 10:34:07;;;;;;;35.22;7.40;;;;;;;;;;4448847;32;20239;-53
2022/03/31 10:36:41;;;;;;;42.05;8.65;;;;;;;;;;4447477;32;20370;-53
2022/03/31 10:39:17;;;;;;;44.75;11.18;;;;;;;;;;4448929;32;20483;-53
2022/03/31 10:41:44;;;;;;;120.90;54.95;;;;;;;;;;4449100;32;20333;-52
2022/03/31 10:44:12;;;;;;;116.25;47.35;;;;;;;;;;4449028;32;20275;-53
2022/03/31 10:46:38;;;;;;;44.60;10.88;;;;;;;;;;4448961;32;20305;-53
2022/03/31 10:49:10;;;;;;;48.28;10.20;;;;;;;;;;4449257;32;20355;-54
2022/03/31 10:51:38;;;;;;;42.38;10.88;;;;;;;;;;4448506;32;20325;-56
2022/03/31 10:54:05;;;;;;;34.85;7.40;;;;;;;;;;4448038;32;20228;-55
2022/03/31 10:56:32;;;;;;;31.45;9.15;;;;;;;;;;4448706;32;20644;-55
2022/03/31 10:59:00;;;;;;;24.55;5.18;;;;;;;;;;4462786;32;20219;-55
2022/03/31 11:01:31;;;;;;;27.98;6.25;;;;;;;;;;4464504;32;20200;-54
2022/03/31 11:04:08;;;;;;;36.33;8.05;;;;;;;;;;4454456;32;20225;-54
2022/03/31 11:06:48;;;;;;;31.23;8.93;;;;;;;;;;4452848;32;20223;-55
2022/03/31 11:09:27;;;;;;;48.95;7.20;;;;;;;;;;4448503;32;20271;-54
2022/03/31 11:11:55;;;;;;;30.58;7.70;;;;;;;;;;4448801;32;20272;-54
2022/03/31 11:14:21;;;;;;;23.62;7.15;;;;;;;;;;4448657;32;20553;-54
2022/03/31 11:16:46;;;;;;;29.63;7.47;;;;;;;;;;4448410;32;20292;-54
2022/03/31 11:19:13;;;;;;;28.45;7.87;;;;;;;;;;4448753;32;20323;-55
2022/03/31 11:21:41;;;;;;;31.48;7.15;;;;;;;;;;4448705;32;20358;-55
2022/03/31 11:24:07;;;;;;;29.35;7.85;;;;;;;;;;4447350;32;20271;-54
2022/03/31 11:26:35;;;;;;;26.83;6.65;;;;;;;;;;4449008;32;20680;-55
2022/03/31 11:29:02;;;;;;;22.75;6.45;;;;;;;;;;4448780;32;20668;-54
2022/03/31 11:31:28;;;;;;;29.37;7.03;;;;;;;;;;4449220;32;20192;-52
2022/03/31 11:33:55;;;;;;;21.95;6.78;;;;;;;;;;4449065;32;20576;-52
2022/03/31 11:36:21;;;;;;;24.15;7.87;;;;;;;;;;4448125;32;20244;-54
2022/03/31 11:38:59;;;;;;;27.30;7.30;;;;;;;;;;4448851;32;20232;-55
2022/03/31 11:41:35;;;;;;;27.67;6.10;;;;;;;;;;4448754;32;20261;-54
2022/03/31 11:44:02;;;;;;;22.05;6.20;;;;;;;;;;4461285;32;20250;-55
2022/03/31 11:46:47;;;;;;;23.50;7.43;;;;;;;;;;4463388;32;20342;-55
2022/03/31 11:49:23;;;;;;;28.77;5.82;;;;;;;;;;4448330;32;20361;-55
2022/03/31 11:51:57;;;;;;;23.42;7.55;;;;;;;;;;4448702;32;20204;-55
2022/03/31 11:54:24;;;;;;;31.62;6.93;;;;;;;;;;4449062;32;20605;-54
2022/03/31 11:57:11;;;;;;;47.28;11.05;;;;;;;;;;4447782;32;20236;-54
2022/03/31 11:59:37;;;;;;;24.35;7.40;;;;;;;;;;4458240;32;20236;-54
2022/03/31 12:02:16;;;;;;;41.53;8.20;;;;;;;;;;4448957;32;20322;-54
2022/03/31 12:04:46;;;;;;;42.30;9.38;;;;;;;;;;4451842;32;20200;-54
2022/03/31 12:07:13;;;;;;;24.20;8.73;;;;;;;;;;4449764;32;20291;-53
2022/03/31 12:09:41;;;;;;;54.03;12.32;;;;;;;;;;4449136;32;20266;-55
2022/03/31 12:12:10;;;;;;;29.42;11.75;;;;;;;;;;4448540;32;20196;-54
2022/03/31 12:14:37;;;;;;;38.88;7.87;;;;;;;;;;4448806;32;20197;-53
2022/03/31 12:17:04;;;;;;;34.53;8.05;;;;;;;;;;4448450;32;20620;-52
2022/03/31 12:19:41;;;;;;;41.08;9.35;;;;;;;;;;4447973;32;20232;-53
2022/03/31 12:22:09;;;;;;;36.97;10.48;;;;;;;;;;4448124;32;20661;-53
2022/03/31 12:24:45;;;;;;;32.20;9.55;;;;;;;;;;4448234;32;20576;-53
2022/03/31 12:27:15;;;;;;;20.77;6.65;;;;;;;;;;4448342;32;20288;-53
2022/03/31 12:29:40;;;;;;;28.85;7.37;;;;;;;;;;4447950;32;20220;-52
2022/03/31 12:32:11;;;;;;;39.78;10.95;;;;;;;;;;4448336;32;20264;-54
2022/03/31 12:34:52;;;;;;;24.08;8.32;;;;;;;;;;4448357;32;20253;-52
2022/03/31 12:37:35;;;;;;;40.95;13.20;;;;;;;;;;4447736;32;20209;-52
2022/03/31 12:40:12;;;;;;;64.10;16.33;;;;;;;;;;4448260;32;20266;-52
2022/03/31 12:42:49;;;;;;;26.35;6.97;;;;;;;;;;4451736;32;20227;-53
2022/03/31 12:45:15;;;;;;;24.27;7.97;;;;;;;;;;4448282;32;20611;-52
2022/03/31 12:47:42;;;;;;;31.33;9.60;;;;;;;;;;4447840;32;20233;-52
2022/03/31 12:50:33;;;;;;;44.25;12.05;;;;;;;;;;4448261;32;20200;-55
2022/03/31 12:53:02;;;;;;;36.60;8.25;;;;;;;;;;4445879;32;20255;-54
2022/03/31 12:55:36;;;;;;;22.95;9.13;;;;;;;;;;4450032;32;20248;-54
2022/03/31 12:58:05;;;;;;;21.95;8.77;;;;;;;;;;4451040;32;20697;-54
2022/03/31 13:00:34;;;;;;;40.08;10.38;;;;;;;;;;4451020;32;20238;-54
2022/03/31 13:03:00;;;;;;;24.10;6.50;;;;;;;;;;4451238;32;20267;-54
2022/03/31 13:05:27;;;;;;;34.70;7.32;;;;;;;;;;4455872;32;20287;-55
2022/03/31 13:07:54;;;;;;;26.45;5.68;;;;;;;;;;4451254;32;20684;-53
2022/03/31 13:10:23;;;;;;;36.22;7.97;;;;;;;;;;4451291;32;20204;-53
2022/03/31 13:12:48;;;;;;;41.72;10.20;;;;;;;;;;4450864;32;20712;-55
2022/03/31 13:15:16;;;;;;;46.37;14.40;;;;;;;;;;4450736;32;20294;-55
2022/03/31 13:17:44;;;;;;;63.87;14.05;;;;;;;;;;4451144;32;20523;-53
2022/03/31 13:20:10;;;;;;;44.38;11.05;;;;;;;;;;4450844;32;20494;-53
2022/03/31 13:22:38;;;;;;;49.40;10.80;;;;;;;;;;4450980;32;20216;-54
2022/03/31 13:25:06;;;;;;;41.03;9.15;;;;;;;;;;4450899;32;20201;-55
2022/03/31 13:27:33;;;;;;;55.25;10.60;;;;;;;;;;4450842;32;20255;-53
2022/03/31 13:29:59;;;;;;;47.15;12.40;;;;;;;;;;4450993;32;20212;-54
2022/03/31 13:32:25;;;;;;;31.73;8.25;;;;;;;;;;4450771;32;20213;-54
2022/03/31 13:34:50;;;;;;;42.15;10.68;;;;;;;;;;4450511;32;20271;-54
2022/03/31 13:37:18;;;;;;;44.72;12.23;;;;;;;;;;4450121;32;20307;-54
2022/03/31 13:39:44;;;;;;;23.02;7.53;;;;;;;;;;4450229;32;20247;-53
2022/03/31 13:42:10;;;;;;;36.92;12.85;;;;;;;;;;4450233;32;20266;-52
2022/03/31 13:44:37;;;;;;;35.72;9.20;;;;;;;;;;4449021;32;20319;-54
2022/03/31 13:47:03;;;;;;;53.67;12.25;;;;;;;;;;4450794;32;20612;-52
2022/03/31 13:49:30;;;;;;;41.25;10.68;;;;;;;;;;4450321;32;20224;-52
2022/03/31 13:51:56;;;;;;;45.90;9.43;;;;;;;;;;4450150;32;20318;-54
2022/03/31 13:54:27;;;;;;;34.25;7.57;;;;;;;;;;4450536;32;20486;-54
2022/03/31 13:56:54;;;;;;;40.90;7.10;;;;;;;;;;4450163;32;20284;-54
2022/03/31 14:02:07;;;;;;;33.22;8.15;;;;;;;;;;4449815;32;20700;-52
2022/03/31 14:04:33;;;;;;;31.98;7.40;;;;;;;;;;4451981;32;20341;-53
2022/03/31 14:06:59;;;;;;;36.28;9.30;;;;;;;;;;4451134;32;20220;-52
2022/03/31 14:09:26;;;;;;;30.45;8.05;;;;;;;;;;4450070;32;20236;-53
2022/03/31 14:11:54;;;;;;;34.88;8.98;;;;;;;;;;4449865;32;20639;-53
2022/03/31 14:14:21;;;;;;;34.83;7.72;;;;;;;;;;4449680;32;20296;-55
2022/03/31 14:16:48;;;;;;;39.13;9.80;;;;;;;;;;4450334;32;20200;-54
2022/03/31 14:19:16;;;;;;;47.88;10.98;;;;;;;;;;4448931;32;20264;-53
2022/03/31 14:21:44;;;;;;;46.08;12.35;;;;;;;;;;4449974;32;20200;-52
2022/03/31 14:24:11;;;;;;;43.47;10.32;;;;;;;;;;4449894;32;20224;-53
2022/03/31 14:26:38;;;;;;;56.97;19.62;;;;;;;;;;4449856;32;20590;-53
2022/03/31 14:29:04;;;;;;;35.10;7.60;;;;;;;;;;4450259;32;20263;-53
2022/03/31 14:31:30;;;;;;;29.55;8.57;;;;;;;;;;4450231;32;20255;-54
2022/03/31 14:33:57;;;;;;;39.47;8.80;;;;;;;;;;4457358;32;20667;-53
2022/03/31 14:36:24;;;;;;;52.15;10.88;;;;;;;;;;4457740;32;20250;-53
2022/03/31 14:38:51;;;;;;;58.45;12.23;;;;;;;;;;4449648;32;20331;-53